sensor_id;sensor_type;location;lat;lon;timestamp;P1;durP1;ratioP1;P2;durP2;ratioP2
72924;SDS011;61070;50.794;7.054;2022-10-16T00:00:30;2.97;;;1.60;;
72924;SDS011;61070;50.794;7.054;2022-10-16T00:02:56;5.30;;;1.60;;
72924;SDS011;61070;50.794;7.054;2022-10-16T00:05:22;6.05;;;1.60;;
72924;SDS011;61070;50.794;7.054;2022-10-16T00:07:47;2.65;;;1.55;;
72924;SDS011;61070;50.794;7.054;2022-10-16T00:10:12;3.60;;;1.75;;
72924;SDS011;61070;50.794;7.054;2022-10-16T00:12:38;5.97;;;1.42;;
72924;SDS011;61070;50.794;7.054;2022-10-16T00:15:03;2.17;;;1.40;;
72924;SDS011;61070;50.794;7.054;2022-10-16T00:17:29;6.75;;;1.60;;
72924;SDS011;61070;50.794;7.054;2022-10-16T00:19:54;4.00;;;1.13;;
72924;SDS011;61070;50.794;7.054;2022-10-16T00:22:20;3.47;;;1.30;;
72924;SDS011;61070;50.794;7.054;2022-10-16T00:24:45;3.35;;;1.38;;
72924;SDS011;61070;50.794;7.054;2022-10-16T00:27:10;1.42;;;0.95;;
72924;SDS011;61070;50.794;7.054;2022-10-16T00:29:35;3.22;;;1.33;;
72924;SDS011;61070;50.794;7.054;2022-10-16T00:32:01;3.70;;;1.15;;
72924;SDS011;61070;50.794;7.054;2022-10-16T00:34:26;2.45;;;1.23;;
72924;SDS011;61070;50.794;7.054;2022-10-16T00:36:51;3.28;;;1.38;;
72924;SDS011;61070;50.794;7.054;2022-10-16T00:39:16;6.30;;;1.63;;
72924;SDS011;61070;50.794;7.054;2022-10-16T00:41:42;3.85;;;1.20;;
72924;SDS011;61070;50.794;7.054;2022-10-16T00:47:12;1.63;;;1.20;;
72924;SDS011;61070;50.794;7.054;2022-10-16T00:49:42;3.13;;;1.08;;
72924;SDS011;61070;50.794;7.054;2022-10-16T00:52:08;3.70;;;1.13;;
72924;SDS011;61070;50.794;7.054;2022-10-16T00:54:33;1.85;;;1.30;;
72924;SDS011;61070;50.794;7.054;2022-10-16T00:57:03;4.45;;;1.60;;
72924;SDS011;61070;50.794;7.054;2022-10-16T00:59:32;3.08;;;1.30;;
72924;SDS011;61070;50.794;7.054;2022-10-16T01:02:02;2.88;;;1.10;;
72924;SDS011;61070;50.794;7.054;2022-10-16T01:04:32;1.75;;;1.02;;
72924;SDS011;61070;50.794;7.054;2022-10-16T01:07:16;2.10;;;1.40;;
72924;SDS011;61070;50.794;7.054;2022-10-16T01:15:31;2.60;;;1.20;;
72924;SDS011;61070;50.794;7.054;2022-10-16T01:23:17;2.72;;;1.10;;
72924;SDS011;61070;50.794;7.054;2022-10-16T01:25:59;4.03;;;1.00;;
72924;SDS011;61070;50.794;7.054;2022-10-16T01:28:36;5.05;;;1.00;;
72924;SDS011;61070;50.794;7.054;2022-10-16T01:31:06;4.93;;;1.30;;
72924;SDS011;61070;50.794;7.054;2022-10-16T01:33:35;2.13;;;1.02;;
72924;SDS011;61070;50.794;7.054;2022-10-16T01:36:31;1.15;;;0.90;;
72924;SDS011;61070;50.794;7.054;2022-10-16T01:41:37;2.38;;;1.00;;
72924;SDS011;61070;50.794;7.054;2022-10-16T01:44:07;7.07;;;1.33;;
72924;SDS011;61070;50.794;7.054;2022-10-16T01:49:03;3.50;;;0.93;;
72924;SDS011;61070;50.794;7.054;2022-10-16T01:51:31;1.08;;;0.90;;
72924;SDS011;61070;50.794;7.054;2022-10-16T01:53:58;4.60;;;1.02;;
72924;SDS011;61070;50.794;7.054;2022-10-16T01:56:26;5.07;;;1.38;;
72924;SDS011;61070;50.794;7.054;2022-10-16T01:58:55;1.85;;;1.33;;
72924;SDS011;61070;50.794;7.054;2022-10-16T02:01:28;2.33;;;1.10;;
72924;SDS011;61070;50.794;7.054;2022-10-16T02:04:00;2.35;;;1.20;;
72924;SDS011;61070;50.794;7.054;2022-10-16T02:06:39;3.38;;;1.35;;
72924;SDS011;61070;50.794;7.054;2022-10-16T02:09:04;4.53;;;1.38;;
72924;SDS011;61070;50.794;7.054;2022-10-16T02:11:30;9.15;;;1.95;;
72924;SDS011;61070;50.794;7.054;2022-10-16T02:13:59;9.13;;;1.50;;
72924;SDS011;61070;50.794;7.054;2022-10-16T02:16:38;4.38;;;1.40;;
72924;SDS011;61070;50.794;7.054;2022-10-16T02:19:05;2.38;;;1.20;;
72924;SDS011;61070;50.794;7.054;2022-10-16T02:21:38;1.67;;;1.27;;
72924;SDS011;61070;50.794;7.054;2022-10-16T02:29:12;3.50;;;1.13;;
72924;SDS011;61070;50.794;7.054;2022-10-16T02:31:43;2.65;;;1.08;;
72924;SDS011;61070;50.794;7.054;2022-10-16T02:34:14;3.00;;;0.90;;
72924;SDS011;61070;50.794;7.054;2022-10-16T02:36:43;0.70;;;0.70;;
72924;SDS011;61070;50.794;7.054;2022-10-16T02:39:10;2.15;;;0.98;;
72924;SDS011;61070;50.794;7.054;2022-10-16T02:41:36;5.05;;;1.27;;
72924;SDS011;61070;50.794;7.054;2022-10-16T02:44:02;6.63;;;1.02;;
72924;SDS011;61070;50.794;7.054;2022-10-16T02:46:27;5.18;;;1.35;;
72924;SDS011;61070;50.794;7.054;2022-10-16T02:48:53;1.20;;;0.98;;
72924;SDS011;61070;50.794;7.054;2022-10-16T02:51:18;1.90;;;0.90;;
72924;SDS011;61070;50.794;7.054;2022-10-16T02:53:43;4.85;;;1.00;;
72924;SDS011;61070;50.794;7.054;2022-10-16T02:56:09;4.65;;;0.88;;
72924;SDS011;61070;50.794;7.054;2022-10-16T02:58:34;3.95;;;1.13;;
72924;SDS011;61070;50.794;7.054;2022-10-16T03:00:59;2.25;;;1.10;;
72924;SDS011;61070;50.794;7.054;2022-10-16T03:03:25;6.78;;;1.27;;
72924;SDS011;61070;50.794;7.054;2022-10-16T03:05:50;2.10;;;0.73;;
72924;SDS011;61070;50.794;7.054;2022-10-16T03:08:16;1.63;;;0.93;;
72924;SDS011;61070;50.794;7.054;2022-10-16T03:10:41;4.10;;;0.95;;
72924;SDS011;61070;50.794;7.054;2022-10-16T03:13:06;1.10;;;1.00;;
72924;SDS011;61070;50.794;7.054;2022-10-16T03:15:32;2.20;;;1.05;;
72924;SDS011;61070;50.794;7.054;2022-10-16T03:17:57;1.17;;;0.90;;
72924;SDS011;61070;50.794;7.054;2022-10-16T03:20:23;2.25;;;1.00;;
72924;SDS011;61070;50.794;7.054;2022-10-16T03:22:49;1.85;;;0.85;;
72924;SDS011;61070;50.794;7.054;2022-10-16T03:25:14;2.38;;;0.90;;
72924;SDS011;61070;50.794;7.054;2022-10-16T03:27:39;1.00;;;0.80;;
72924;SDS011;61070;50.794;7.054;2022-10-16T03:30:05;3.13;;;0.90;;
72924;SDS011;61070;50.794;7.054;2022-10-16T03:32:31;3.85;;;1.23;;
72924;SDS011;61070;50.794;7.054;2022-10-16T03:34:56;2.35;;;0.95;;
72924;SDS011;61070;50.794;7.054;2022-10-16T03:37:21;1.40;;;0.90;;
72924;SDS011;61070;50.794;7.054;2022-10-16T03:39:47;2.50;;;1.00;;
72924;SDS011;61070;50.794;7.054;2022-10-16T03:42:12;6.28;;;1.52;;
72924;SDS011;61070;50.794;7.054;2022-10-16T03:44:37;0.90;;;0.90;;
72924;SDS011;61070;50.794;7.054;2022-10-16T03:47:03;1.90;;;1.00;;
72924;SDS011;61070;50.794;7.054;2022-10-16T03:49:28;3.85;;;0.90;;
72924;SDS011;61070;50.794;7.054;2022-10-16T03:51:54;3.33;;;1.00;;
72924;SDS011;61070;50.794;7.054;2022-10-16T03:54:20;4.10;;;0.90;;
72924;SDS011;61070;50.794;7.054;2022-10-16T03:56:47;2.50;;;1.10;;
72924;SDS011;61070;50.794;7.054;2022-10-16T03:59:12;3.25;;;1.00;;
72924;SDS011;61070;50.794;7.054;2022-10-16T04:01:37;3.40;;;0.93;;
72924;SDS011;61070;50.794;7.054;2022-10-16T04:04:02;4.72;;;1.30;;
72924;SDS011;61070;50.794;7.054;2022-10-16T04:06:28;5.93;;;1.35;;
72924;SDS011;61070;50.794;7.054;2022-10-16T04:08:53;1.92;;;1.00;;
72924;SDS011;61070;50.794;7.054;2022-10-16T04:11:18;0.90;;;0.77;;
72924;SDS011;61070;50.794;7.054;2022-10-16T04:13:44;2.22;;;0.70;;
72924;SDS011;61070;50.794;7.054;2022-10-16T04:16:10;2.08;;;1.10;;
72924;SDS011;61070;50.794;7.054;2022-10-16T04:18:35;6.22;;;1.08;;
72924;SDS011;61070;50.794;7.054;2022-10-16T04:21:04;3.30;;;0.95;;
72924;SDS011;61070;50.794;7.054;2022-10-16T04:23:30;1.35;;;0.88;;
72924;SDS011;61070;50.794;7.054;2022-10-16T04:25:56;1.20;;;0.75;;
72924;SDS011;61070;50.794;7.054;2022-10-16T04:28:21;6.07;;;1.58;;
72924;SDS011;61070;50.794;7.054;2022-10-16T04:30:47;2.30;;;0.90;;
72924;SDS011;61070;50.794;7.054;2022-10-16T04:33:12;1.00;;;0.90;;
72924;SDS011;61070;50.794;7.054;2022-10-16T04:35:38;4.20;;;1.17;;
72924;SDS011;61070;50.794;7.054;2022-10-16T04:38:03;4.65;;;1.20;;
72924;SDS011;61070;50.794;7.054;2022-10-16T04:40:28;4.05;;;1.17;;
72924;SDS011;61070;50.794;7.054;2022-10-16T04:42:54;4.55;;;1.20;;
72924;SDS011;61070;50.794;7.054;2022-10-16T04:45:19;2.08;;;1.00;;
72924;SDS011;61070;50.794;7.054;2022-10-16T04:47:44;10.55;;;2.85;;
72924;SDS011;61070;50.794;7.054;2022-10-16T04:50:09;2.28;;;1.30;;
72924;SDS011;61070;50.794;7.054;2022-10-16T04:52:35;3.42;;;0.80;;
72924;SDS011;61070;50.794;7.054;2022-10-16T04:55:01;3.22;;;0.90;;
72924;SDS011;61070;50.794;7.054;2022-10-16T04:57:28;5.90;;;1.15;;
72924;SDS011;61070;50.794;7.054;2022-10-16T04:59:54;3.13;;;0.90;;
72924;SDS011;61070;50.794;7.054;2022-10-16T05:02:20;11.45;;;1.33;;
72924;SDS011;61070;50.794;7.054;2022-10-16T05:04:45;3.03;;;0.88;;
72924;SDS011;61070;50.794;7.054;2022-10-16T05:07:10;4.90;;;1.10;;
72924;SDS011;61070;50.794;7.054;2022-10-16T05:09:36;3.63;;;1.15;;
72924;SDS011;61070;50.794;7.054;2022-10-16T05:12:01;3.92;;;1.00;;
72924;SDS011;61070;50.794;7.054;2022-10-16T05:14:28;1.75;;;0.65;;
72924;SDS011;61070;50.794;7.054;2022-10-16T05:16:54;1.58;;;1.08;;
72924;SDS011;61070;50.794;7.054;2022-10-16T05:19:19;3.83;;;1.00;;
72924;SDS011;61070;50.794;7.054;2022-10-16T05:21:44;4.63;;;1.17;;
72924;SDS011;61070;50.794;7.054;2022-10-16T05:24:09;2.03;;;0.90;;
72924;SDS011;61070;50.794;7.054;2022-10-16T05:26:35;7.45;;;1.05;;
72924;SDS011;61070;50.794;7.054;2022-10-16T05:29:00;3.08;;;1.00;;
72924;SDS011;61070;50.794;7.054;2022-10-16T05:31:25;1.50;;;1.05;;
72924;SDS011;61070;50.794;7.054;2022-10-16T05:33:51;6.22;;;1.27;;
72924;SDS011;61070;50.794;7.054;2022-10-16T05:36:16;1.73;;;0.90;;
72924;SDS011;61070;50.794;7.054;2022-10-16T05:38:43;1.90;;;1.17;;
72924;SDS011;61070;50.794;7.054;2022-10-16T05:41:08;6.30;;;1.15;;
72924;SDS011;61070;50.794;7.054;2022-10-16T05:43:35;2.78;;;1.60;;
72924;SDS011;61070;50.794;7.054;2022-10-16T05:46:01;6.68;;;1.50;;
72924;SDS011;61070;50.794;7.054;2022-10-16T05:48:29;2.00;;;1.00;;
72924;SDS011;61070;50.794;7.054;2022-10-16T05:51:02;4.90;;;0.80;;
72924;SDS011;61070;50.794;7.054;2022-10-16T05:53:30;2.75;;;1.35;;
72924;SDS011;61070;50.794;7.054;2022-10-16T05:55:57;4.10;;;1.40;;
72924;SDS011;61070;50.794;7.054;2022-10-16T05:58:23;4.13;;;1.00;;
72924;SDS011;61070;50.794;7.054;2022-10-16T06:00:53;5.82;;;0.93;;
72924;SDS011;61070;50.794;7.054;2022-10-16T06:03:24;1.80;;;1.10;;
72924;SDS011;61070;50.794;7.054;2022-10-16T06:05:50;2.78;;;1.10;;
72924;SDS011;61070;50.794;7.054;2022-10-16T06:08:16;4.55;;;1.27;;
72924;SDS011;61070;50.794;7.054;2022-10-16T06:10:42;1.10;;;1.00;;
72924;SDS011;61070;50.794;7.054;2022-10-16T06:13:08;1.15;;;0.80;;
72924;SDS011;61070;50.794;7.054;2022-10-16T06:15:34;1.92;;;1.30;;
72924;SDS011;61070;50.794;7.054;2022-10-16T06:17:59;2.35;;;1.33;;
72924;SDS011;61070;50.794;7.054;2022-10-16T06:20:24;8.70;;;1.00;;
72924;SDS011;61070;50.794;7.054;2022-10-16T06:22:51;1.70;;;1.05;;
72924;SDS011;61070;50.794;7.054;2022-10-16T06:25:16;2.33;;;1.23;;
72924;SDS011;61070;50.794;7.054;2022-10-16T06:27:41;1.38;;;1.23;;
72924;SDS011;61070;50.794;7.054;2022-10-16T06:30:07;2.72;;;1.27;;
72924;SDS011;61070;50.794;7.054;2022-10-16T06:32:32;2.45;;;1.27;;
72924;SDS011;61070;50.794;7.054;2022-10-16T06:34:58;2.70;;;1.58;;
72924;SDS011;61070;50.794;7.054;2022-10-16T06:37:23;3.20;;;1.48;;
72924;SDS011;61070;50.794;7.054;2022-10-16T06:39:49;3.70;;;1.63;;
72924;SDS011;61070;50.794;7.054;2022-10-16T06:42:17;6.00;;;2.13;;
72924;SDS011;61070;50.794;7.054;2022-10-16T06:44:42;3.05;;;1.55;;
72924;SDS011;61070;50.794;7.054;2022-10-16T06:47:07;2.65;;;1.60;;
72924;SDS011;61070;50.794;7.054;2022-10-16T06:49:33;2.45;;;1.80;;
72924;SDS011;61070;50.794;7.054;2022-10-16T06:51:58;4.15;;;1.70;;
72924;SDS011;61070;50.794;7.054;2022-10-16T06:54:23;3.83;;;1.67;;
72924;SDS011;61070;50.794;7.054;2022-10-16T06:56:48;4.65;;;1.65;;
72924;SDS011;61070;50.794;7.054;2022-10-16T06:59:16;2.60;;;1.75;;
72924;SDS011;61070;50.794;7.054;2022-10-16T07:01:41;4.45;;;1.70;;
72924;SDS011;61070;50.794;7.054;2022-10-16T07:04:07;2.28;;;2.08;;
72924;SDS011;61070;50.794;7.054;2022-10-16T07:06:33;4.60;;;2.20;;
72924;SDS011;61070;50.794;7.054;2022-10-16T07:09:00;2.35;;;1.77;;
72924;SDS011;61070;50.794;7.054;2022-10-16T07:11:26;10.02;;;1.90;;
72924;SDS011;61070;50.794;7.054;2022-10-16T07:13:52;2.65;;;2.30;;
72924;SDS011;61070;50.794;7.054;2022-10-16T07:16:18;2.33;;;2.13;;
72924;SDS011;61070;50.794;7.054;2022-10-16T07:18:45;3.70;;;2.33;;
72924;SDS011;61070;50.794;7.054;2022-10-16T07:21:14;5.45;;;2.20;;
72924;SDS011;61070;50.794;7.054;2022-10-16T07:23:41;4.97;;;2.20;;
72924;SDS011;61070;50.794;7.054;2022-10-16T07:26:07;7.13;;;2.65;;
72924;SDS011;61070;50.794;7.054;2022-10-16T07:28:33;4.38;;;2.20;;
72924;SDS011;61070;50.794;7.054;2022-10-16T07:31:02;5.65;;;2.40;;
72924;SDS011;61070;50.794;7.054;2022-10-16T07:33:30;5.13;;;2.38;;
72924;SDS011;61070;50.794;7.054;2022-10-16T07:35:55;3.28;;;2.33;;
72924;SDS011;61070;50.794;7.054;2022-10-16T07:38:21;6.07;;;2.97;;
72924;SDS011;61070;50.794;7.054;2022-10-16T07:40:47;4.38;;;2.67;;
72924;SDS011;61070;50.794;7.054;2022-10-16T07:43:13;4.70;;;2.72;;
72924;SDS011;61070;50.794;7.054;2022-10-16T07:45:48;5.60;;;2.58;;
72924;SDS011;61070;50.794;7.054;2022-10-16T07:48:14;5.80;;;2.35;;
72924;SDS011;61070;50.794;7.054;2022-10-16T07:50:40;5.78;;;2.30;;
72924;SDS011;61070;50.794;7.054;2022-10-16T07:53:06;8.48;;;2.20;;
72924;SDS011;61070;50.794;7.054;2022-10-16T07:55:31;4.38;;;2.15;;
72924;SDS011;61070;50.794;7.054;2022-10-16T07:57:56;6.13;;;2.65;;
72924;SDS011;61070;50.794;7.054;2022-10-16T08:00:22;8.23;;;2.20;;
72924;SDS011;61070;50.794;7.054;2022-10-16T08:02:47;5.22;;;2.03;;
72924;SDS011;61070;50.794;7.054;2022-10-16T08:05:12;5.43;;;2.75;;
72924;SDS011;61070;50.794;7.054;2022-10-16T08:07:38;5.63;;;2.10;;
72924;SDS011;61070;50.794;7.054;2022-10-16T08:10:03;6.88;;;2.53;;
72924;SDS011;61070;50.794;7.054;2022-10-16T08:12:29;2.42;;;2.00;;
72924;SDS011;61070;50.794;7.054;2022-10-16T08:14:54;4.35;;;2.25;;
72924;SDS011;61070;50.794;7.054;2022-10-16T08:17:19;6.60;;;2.03;;
72924;SDS011;61070;50.794;7.054;2022-10-16T08:19:45;8.55;;;2.15;;
72924;SDS011;61070;50.794;7.054;2022-10-16T08:22:12;5.72;;;1.90;;
72924;SDS011;61070;50.794;7.054;2022-10-16T08:24:37;4.78;;;2.10;;
72924;SDS011;61070;50.794;7.054;2022-10-16T08:27:03;6.85;;;1.80;;
72924;SDS011;61070;50.794;7.054;2022-10-16T08:29:28;6.40;;;1.65;;
72924;SDS011;61070;50.794;7.054;2022-10-16T08:31:53;4.68;;;1.70;;
72924;SDS011;61070;50.794;7.054;2022-10-16T08:34:19;11.85;;;2.03;;
72924;SDS011;61070;50.794;7.054;2022-10-16T08:36:44;10.02;;;2.00;;
72924;SDS011;61070;50.794;7.054;2022-10-16T08:39:09;2.85;;;1.40;;
72924;SDS011;61070;50.794;7.054;2022-10-16T08:41:55;2.65;;;1.80;;
72924;SDS011;61070;50.794;7.054;2022-10-16T08:47:17;5.57;;;1.60;;
72924;SDS011;61070;50.794;7.054;2022-10-16T08:49:59;2.90;;;1.27;;
72924;SDS011;61070;50.794;7.054;2022-10-16T08:52:31;2.58;;;1.20;;
72924;SDS011;61070;50.794;7.054;2022-10-16T08:55:00;8.23;;;1.67;;
72924;SDS011;61070;50.794;7.054;2022-10-16T08:57:26;3.17;;;1.67;;
72924;SDS011;61070;50.794;7.054;2022-10-16T08:59:52;4.82;;;1.13;;
72924;SDS011;61070;50.794;7.054;2022-10-16T09:03:04;3.28;;;1.30;;
72924;SDS011;61070;50.794;7.054;2022-10-16T09:05:28;2.42;;;1.20;;
72924;SDS011;61070;50.794;7.054;2022-10-16T09:08:26;1.67;;;0.80;;
72924;SDS011;61070;50.794;7.054;2022-10-16T09:10:58;3.17;;;0.95;;
72924;SDS011;61070;50.794;7.054;2022-10-16T09:13:34;5.38;;;0.95;;
72924;SDS011;61070;50.794;7.054;2022-10-16T09:16:12;3.33;;;0.73;;
72924;SDS011;61070;50.794;7.054;2022-10-16T09:23:48;3.70;;;0.57;;
72924;SDS011;61070;50.794;7.054;2022-10-16T09:26:14;1.08;;;0.65;;
72924;SDS011;61070;50.794;7.054;2022-10-16T09:28:41;4.03;;;0.88;;
72924;SDS011;61070;50.794;7.054;2022-10-16T09:31:10;1.52;;;0.65;;
72924;SDS011;61070;50.794;7.054;2022-10-16T09:33:41;1.27;;;0.70;;
72924;SDS011;61070;50.794;7.054;2022-10-16T09:36:08;2.17;;;0.82;;
72924;SDS011;61070;50.794;7.054;2022-10-16T09:38:35;2.85;;;0.65;;
72924;SDS011;61070;50.794;7.054;2022-10-16T09:41:15;3.20;;;0.50;;
72924;SDS011;61070;50.794;7.054;2022-10-16T09:43:59;1.27;;;0.63;;
72924;SDS011;61070;50.794;7.054;2022-10-16T09:46:27;2.97;;;0.60;;
72924;SDS011;61070;50.794;7.054;2022-10-16T09:53:54;1.15;;;0.60;;
72924;SDS011;61070;50.794;7.054;2022-10-16T09:56:40;3.03;;;0.45;;
72924;SDS011;61070;50.794;7.054;2022-10-16T09:59:13;1.50;;;0.50;;
72924;SDS011;61070;50.794;7.054;2022-10-16T10:01:56;0.88;;;0.60;;
72924;SDS011;61070;50.794;7.054;2022-10-16T10:04:23;1.40;;;0.52;;
72924;SDS011;61070;50.794;7.054;2022-10-16T10:06:54;1.35;;;0.93;;
72924;SDS011;61070;50.794;7.054;2022-10-16T10:09:25;4.35;;;0.77;;
72924;SDS011;61070;50.794;7.054;2022-10-16T10:11:53;1.00;;;0.30;;
72924;SDS011;61070;50.794;7.054;2022-10-16T10:14:25;4.65;;;0.82;;
72924;SDS011;61070;50.794;7.054;2022-10-16T10:17:14;1.45;;;0.40;;
72924;SDS011;61070;50.794;7.054;2022-10-16T10:19:47;0.80;;;0.40;;
72924;SDS011;61070;50.794;7.054;2022-10-16T10:22:18;1.88;;;0.70;;
72924;SDS011;61070;50.794;7.054;2022-10-16T10:24:57;2.17;;;0.50;;
72924;SDS011;61070;50.794;7.054;2022-10-16T10:28:14;6.60;;;0.87;;
72924;SDS011;61070;50.794;7.054;2022-10-16T10:30:25;0.40;;;0.38;;
72924;SDS011;61070;50.794;7.054;2022-10-16T10:43:39;0.57;;;0.50;;
72924;SDS011;61070;50.794;7.054;2022-10-16T10:46:10;1.35;;;0.50;;
72924;SDS011;61070;50.794;7.054;2022-10-16T10:48:47;0.50;;;0.20;;
72924;SDS011;61070;50.794;7.054;2022-10-16T10:54:18;1.13;;;0.40;;
72924;SDS011;61070;50.794;7.054;2022-10-16T10:56:57;1.00;;;0.40;;
72924;SDS011;61070;50.794;7.054;2022-10-16T11:02:13;3.30;;;0.70;;
72924;SDS011;61070;50.794;7.054;2022-10-16T11:07:52;0.80;;;0.30;;
72924;SDS011;61070;50.794;7.054;2022-10-16T11:10:33;3.38;;;0.93;;
72924;SDS011;61070;50.794;7.054;2022-10-16T11:13:17;0.40;;;0.40;;
72924;SDS011;61070;50.794;7.054;2022-10-16T11:15:44;1.20;;;0.50;;
72924;SDS011;61070;50.794;7.054;2022-10-16T11:18:17;2.72;;;0.50;;
72924;SDS011;61070;50.794;7.054;2022-10-16T11:20:50;3.20;;;0.65;;
72924;SDS011;61070;50.794;7.054;2022-10-16T11:23:26;8.25;;;1.48;;
72924;SDS011;61070;50.794;7.054;2022-10-16T11:26:05;12.20;;;2.40;;
72924;SDS011;61070;50.794;7.054;2022-10-16T11:28:43;1.80;;;0.88;;
72924;SDS011;61070;50.794;7.054;2022-10-16T11:31:21;5.20;;;1.02;;
72924;SDS011;61070;50.794;7.054;2022-10-16T11:36:22;3.25;;;0.60;;
72924;SDS011;61070;50.794;7.054;2022-10-16T11:49:30;1.20;;;0.40;;
72924;SDS011;61070;50.794;7.054;2022-10-16T11:54:37;0.85;;;0.35;;
72924;SDS011;61070;50.794;7.054;2022-10-16T11:57:11;4.32;;;0.40;;
72924;SDS011;61070;50.794;7.054;2022-10-16T11:59:42;0.30;;;0.20;;
72924;SDS011;61070;50.794;7.054;2022-10-16T12:02:30;2.58;;;0.38;;
72924;SDS011;61070;50.794;7.054;2022-10-16T12:05:09;1.10;;;0.52;;
72924;SDS011;61070;50.794;7.054;2022-10-16T12:07:56;2.47;;;0.50;;
72924;SDS011;61070;50.794;7.054;2022-10-16T12:10:33;1.83;;;0.60;;
72924;SDS011;61070;50.794;7.054;2022-10-16T12:13:02;1.02;;;0.50;;
72924;SDS011;61070;50.794;7.054;2022-10-16T12:15:30;0.20;;;0.20;;
72924;SDS011;61070;50.794;7.054;2022-10-16T12:17:57;2.70;;;0.55;;
72924;SDS011;61070;50.794;7.054;2022-10-16T12:20:24;1.58;;;0.57;;
72924;SDS011;61070;50.794;7.054;2022-10-16T12:22:52;0.95;;;0.40;;
72924;SDS011;61070;50.794;7.054;2022-10-16T12:25:36;1.80;;;0.60;;
72924;SDS011;61070;50.794;7.054;2022-10-16T12:28:20;2.22;;;0.63;;
72924;SDS011;61070;50.794;7.054;2022-10-16T12:30:54;1.17;;;0.57;;
72924;SDS011;61070;50.794;7.054;2022-10-16T12:35:51;0.82;;;0.40;;
72924;SDS011;61070;50.794;7.054;2022-10-16T12:38:25;1.80;;;0.35;;
72924;SDS011;61070;50.794;7.054;2022-10-16T12:41:23;2.78;;;0.50;;
72924;SDS011;61070;50.794;7.054;2022-10-16T12:43:51;1.35;;;0.40;;
72924;SDS011;61070;50.794;7.054;2022-10-16T12:48:42;2.57;;;0.50;;
72924;SDS011;61070;50.794;7.054;2022-10-16T12:51:19;0.73;;;0.32;;
72924;SDS011;61070;50.794;7.054;2022-10-16T12:56:39;0.60;;;0.40;;
72924;SDS011;61070;50.794;7.054;2022-10-16T13:05:56;5.78;;;0.63;;
72924;SDS011;61070;50.794;7.054;2022-10-16T13:10:28;3.25;;;0.50;;
72924;SDS011;61070;50.794;7.054;2022-10-16T13:16:13;0.90;;;0.40;;
72924;SDS011;61070;50.794;7.054;2022-10-16T13:18:49;1.67;;;0.50;;
72924;SDS011;61070;50.794;7.054;2022-10-16T13:21:37;1.20;;;0.40;;
72924;SDS011;61070;50.794;7.054;2022-10-16T13:29:44;3.22;;;0.47;;
72924;SDS011;61070;50.794;7.054;2022-10-16T13:32:17;3.03;;;0.55;;
72924;SDS011;61070;50.794;7.054;2022-10-16T13:34:45;2.92;;;0.52;;
72924;SDS011;61070;50.794;7.054;2022-10-16T13:37:19;4.28;;;0.55;;
72924;SDS011;61070;50.794;7.054;2022-10-16T13:39:45;1.77;;;0.50;;
72924;SDS011;61070;50.794;7.054;2022-10-16T13:42:16;1.90;;;0.43;;
72924;SDS011;61070;50.794;7.054;2022-10-16T13:44:51;2.85;;;0.68;;
72924;SDS011;61070;50.794;7.054;2022-10-16T13:47:18;1.52;;;0.57;;
72924;SDS011;61070;50.794;7.054;2022-10-16T13:49:45;2.78;;;0.38;;
72924;SDS011;61070;50.794;7.054;2022-10-16T13:52:19;0.40;;;0.40;;
72924;SDS011;61070;50.794;7.054;2022-10-16T13:54:45;1.75;;;0.47;;
72924;SDS011;61070;50.794;7.054;2022-10-16T13:57:12;1.75;;;0.57;;
72924;SDS011;61070;50.794;7.054;2022-10-16T13:59:39;5.30;;;1.60;;
72924;SDS011;61070;50.794;7.054;2022-10-16T14:02:25;0.77;;;0.40;;
72924;SDS011;61070;50.794;7.054;2022-10-16T14:04:54;0.65;;;0.47;;
72924;SDS011;61070;50.794;7.054;2022-10-16T14:07:23;2.65;;;0.40;;
72924;SDS011;61070;50.794;7.054;2022-10-16T14:12:16;0.68;;;0.40;;
72924;SDS011;61070;50.794;7.054;2022-10-16T14:14:46;1.63;;;0.55;;
72924;SDS011;61070;50.794;7.054;2022-10-16T14:17:23;0.55;;;0.30;;
72924;SDS011;61070;50.794;7.054;2022-10-16T14:19:52;10.02;;;0.93;;
72924;SDS011;61070;50.794;7.054;2022-10-16T14:22:30;1.88;;;0.43;;
72924;SDS011;61070;50.794;7.054;2022-10-16T14:24:56;2.88;;;0.57;;
72924;SDS011;61070;50.794;7.054;2022-10-16T14:27:32;0.68;;;0.40;;
72924;SDS011;61070;50.794;7.054;2022-10-16T14:30:19;2.97;;;0.40;;
72924;SDS011;61070;50.794;7.054;2022-10-16T14:33:00;0.70;;;0.47;;
72924;SDS011;61070;50.794;7.054;2022-10-16T14:37:55;4.47;;;0.70;;
72924;SDS011;61070;50.794;7.054;2022-10-16T14:40:23;1.30;;;0.47;;
72924;SDS011;61070;50.794;7.054;2022-10-16T14:42:50;1.52;;;0.40;;
72924;SDS011;61070;50.794;7.054;2022-10-16T14:45:20;0.50;;;0.40;;
72924;SDS011;61070;50.794;7.054;2022-10-16T14:47:49;0.60;;;0.30;;
72924;SDS011;61070;50.794;7.054;2022-10-16T14:50:17;1.13;;;0.30;;
72924;SDS011;61070;50.794;7.054;2022-10-16T14:52:42;1.00;;;0.40;;
72924;SDS011;61070;50.794;7.054;2022-10-16T14:55:09;0.88;;;0.43;;
72924;SDS011;61070;50.794;7.054;2022-10-16T14:57:35;0.47;;;0.40;;
72924;SDS011;61070;50.794;7.054;2022-10-16T15:00:03;0.88;;;0.40;;
72924;SDS011;61070;50.794;7.054;2022-10-16T15:02:38;0.63;;;0.40;;
72924;SDS011;61070;50.794;7.054;2022-10-16T15:07:46;0.60;;;0.30;;
72924;SDS011;61070;50.794;7.054;2022-10-16T15:10:12;2.42;;;0.40;;
72924;SDS011;61070;50.794;7.054;2022-10-16T15:12:38;0.65;;;0.50;;
72924;SDS011;61070;50.794;7.054;2022-10-16T15:17:47;0.57;;;0.40;;
72924;SDS011;61070;50.794;7.054;2022-10-16T15:20:13;2.65;;;1.10;;
72924;SDS011;61070;50.794;7.054;2022-10-16T15:22:38;0.98;;;0.60;;
72924;SDS011;61070;50.794;7.054;2022-10-16T15:25:16;1.77;;;0.60;;
72924;SDS011;61070;50.794;7.054;2022-10-16T15:27:49;1.15;;;0.50;;
72924;SDS011;61070;50.794;7.054;2022-10-16T15:30:15;1.48;;;0.60;;
72924;SDS011;61070;50.794;7.054;2022-10-16T15:32:40;1.90;;;0.68;;
72924;SDS011;61070;50.794;7.054;2022-10-16T15:35:07;1.45;;;0.50;;
72924;SDS011;61070;50.794;7.054;2022-10-16T15:37:33;1.00;;;0.50;;
72924;SDS011;61070;50.794;7.054;2022-10-16T15:39:58;3.97;;;0.95;;
72924;SDS011;61070;50.794;7.054;2022-10-16T15:42:24;1.92;;;0.60;;
72924;SDS011;61070;50.794;7.054;2022-10-16T15:44:49;4.55;;;0.90;;
72924;SDS011;61070;50.794;7.054;2022-10-16T15:47:14;3.50;;;0.60;;
72924;SDS011;61070;50.794;7.054;2022-10-16T15:49:41;2.13;;;1.10;;
72924;SDS011;61070;50.794;7.054;2022-10-16T15:52:06;2.20;;;0.80;;
72924;SDS011;61070;50.794;7.054;2022-10-16T15:54:32;3.13;;;0.77;;
72924;SDS011;61070;50.794;7.054;2022-10-16T15:56:57;1.38;;;0.80;;
72924;SDS011;61070;50.794;7.054;2022-10-16T15:59:22;1.77;;;0.70;;
72924;SDS011;61070;50.794;7.054;2022-10-16T16:01:47;0.73;;;0.55;;
72924;SDS011;61070;50.794;7.054;2022-10-16T16:04:13;2.58;;;0.73;;
72924;SDS011;61070;50.794;7.054;2022-10-16T16:06:38;1.63;;;1.00;;
72924;SDS011;61070;50.794;7.054;2022-10-16T16:09:09;4.07;;;1.10;;
72924;SDS011;61070;50.794;7.054;2022-10-16T16:11:34;2.67;;;0.98;;
72924;SDS011;61070;50.794;7.054;2022-10-16T16:14:03;2.55;;;1.30;;
72924;SDS011;61070;50.794;7.054;2022-10-16T16:16:30;2.67;;;1.40;;
72924;SDS011;61070;50.794;7.054;2022-10-16T16:18:55;3.63;;;2.22;;
72924;SDS011;61070;50.794;7.054;2022-10-16T16:21:20;4.93;;;3.28;;
72924;SDS011;61070;50.794;7.054;2022-10-16T16:23:46;6.32;;;3.80;;
72924;SDS011;61070;50.794;7.054;2022-10-16T16:26:14;8.77;;;5.20;;
72924;SDS011;61070;50.794;7.054;2022-10-16T16:28:48;6.07;;;3.20;;
72924;SDS011;61070;50.794;7.054;2022-10-16T16:31:14;4.43;;;1.90;;
72924;SDS011;61070;50.794;7.054;2022-10-16T16:33:39;3.47;;;2.40;;
72924;SDS011;61070;50.794;7.054;2022-10-16T16:36:05;6.32;;;2.10;;
72924;SDS011;61070;50.794;7.054;2022-10-16T16:38:31;3.22;;;1.33;;
72924;SDS011;61070;50.794;7.054;2022-10-16T16:40:58;4.60;;;2.60;;
72924;SDS011;61070;50.794;7.054;2022-10-16T16:43:26;10.57;;;5.00;;
72924;SDS011;61070;50.794;7.054;2022-10-16T16:45:52;6.38;;;3.45;;